Time;durP1;ratioP1;P1;durP2;ratioP2;P2;SDS_P1;SDS_P2;PMS_P1;PMS_P2;Temp;Humidity;BMP_temperature;BMP_pressure;BME280_temperature;BME280_humidity;BME280_pressure;Samples;Min_cycle;Max_cycle;Signal;HPM_P1;HPM_P2
2021/04/25 00:01:54;;;;;;;32.95;16.90;;;;;;;9.62;58.18;92888.03;5025527;28;20056;-92
2021/04/25 00:04:45;;;;;;;36.90;17.75;;;;;;;9.28;57.92;92836.47;5015083;28;20049;-93
2021/04/25 00:07:50;;;;;;;33.25;16.52;;;;;;;9.63;58.23;92886.22;5009314;28;20049;-92
2021/04/25 00:10:59;;;;;;;30.20;16.55;;;;;;;9.26;58.38;92828.13;5023443;28;20049;-93
2021/04/25 00:14:29;;;;;;;;;;;;;;;;;;;;;
2021/04/25 00:17:11;;;;;;;33.03;16.30;;;;;;;9.59;58.01;92872.88;5025440;28;20056;-90
2021/04/25 00:20:32;;;;;;;;;;;;;;;;;;;;;
2021/04/25 00:23:47;;;;;;;35.42;17.90;;;;;;;9.32;57.91;92819.22;5006296;28;20037;-91
2021/04/25 00:26:53;;;;;;;;;;;;;;;;;;;;;
2021/04/25 00:30:53;;;;;;;;;;;;;;;;;;;;;
2021/04/25 00:33:57;;;;;;;;;;;;;;;;;;;;;
2021/04/25 00:37:06;;;;;;;30.00;16.73;;;;;;;9.40;58.30;92822.31;5021702;28;20045;-91
2021/04/25 00:40:07;;;;;;;30.23;16.75;;;;;;;9.35;58.52;92817.91;5054512;28;20052;-91
2021/04/25 00:50:01;;;;;;;;;;;;;;;;;;;;;
2021/04/25 00:56:32;;;;;;;29.27;15.38;;;;;;;9.46;58.20;92795.09;5022678;28;20045;-91
2021/04/25 01:03:19;;;;;;;37.60;16.90;;;;;;;9.69;57.67;92820.56;5062188;28;20041;-91
2021/04/25 01:06:56;;;;;;;30.20;15.30;;;;;;;9.65;57.57;92810.91;5042905;28;20037;-91
2021/04/25 01:10:19;;;;;;;31.38;14.77;;;;;;;9.75;57.62;92818.69;5048467;28;20046;-91
2021/04/25 01:20:07;;;;;;;30.48;15.05;;;;;;;9.96;57.03;92832.41;5029874;28;20070;-91
2021/04/25 01:26:41;;;;;;;28.42;15.10;;;;;;;9.63;57.41;92782.44;4930981;29;20203;-91
2021/04/25 01:29:51;;;;;;;27.63;15.35;;;;;;;9.96;57.99;92835.00;5014276;28;20045;-92
2021/04/25 01:33:28;;;;;;;;;;;;;;;;;;;;;
2021/04/25 01:36:43;;;;;;;;;;;;;;;;;;;;;
2021/04/25 01:40:01;;;;;;;29.92;14.88;;;;;;;9.55;58.53;92790.88;5037088;28;20049;-91
2021/04/25 01:42:56;;;;;;;27.45;14.52;;;;;;;9.42;58.64;92775.78;5038766;28;20045;-91
2021/04/25 01:45:53;;;;;;;29.42;14.80;;;;;;;9.67;58.84;92827.13;5014679;28;20208;-91
2021/04/25 01:49:15;;;;;;;;;;;;;;;;;;;;;
2021/04/25 01:59:06;;;;;;;27.85;14.15;;;;;;;9.20;59.08;92776.94;5063019;28;20042;-92
2021/04/25 02:05:21;;;;;;;29.17;15.93;;;;;;;9.11;58.95;92768.91;5038398;28;20061;-93
2021/04/25 02:08:19;;;;;;;30.73;16.08;;;;;;;9.10;59.22;92774.41;5027030;28;20054;-91
2021/04/25 02:11:34;;;;;;;31.23;15.68;;;;;;;9.24;59.50;92798.88;5039646;28;20411;-91
2021/04/25 02:14:35;;;;;;;29.77;14.77;;;;;;;8.97;59.41;92765.31;5007772;28;20053;-90
2021/04/25 02:21:00;;;;;;;32.20;16.00;;;;;;;8.83;59.67;92753.91;5032452;28;20052;-92
2021/04/25 02:23:47;;;;;;;28.60;14.80;;;;;;;9.08;59.57;92806.00;5014453;28;20089;-90
2021/04/25 02:27:02;;;;;;;29.20;15.40;;;;;;;8.88;59.73;92775.53;5014660;28;20064;-91
2021/04/25 02:29:46;;;;;;;;;;;;;;;;;;;;;
2021/04/25 02:33:19;;;;;;;33.55;16.52;;;;;;;8.93;60.00;92788.56;5009200;28;20042;-91
2021/04/25 02:36:33;;;;;;;27.98;15.38;;;;;;;9.04;60.25;92802.38;5013110;28;20522;-91
2021/04/25 02:40:06;;;;;;;31.63;15.52;;;;;;;8.62;60.55;92747.97;5006412;28;20422;-91
2021/04/25 02:43:02;;;;;;;;;;;;;;;;;;;;;
2021/04/25 02:49:10;;;;;;;29.40;15.73;;;;;;;8.74;60.86;92779.78;4953090;28;20051;-91
2021/04/25 02:52:27;;;;;;;33.88;16.63;;;;;;;8.51;60.70;92755.88;4960582;28;20074;-91
2021/04/25 02:55:42;;;;;;;;;;;;;;;;;;;;;
2021/04/25 02:58:56;;;;;;;;;;;;;;;;;;;;;
2021/04/25 03:02:29;;;;;;;32.30;16.10;;;;;;;8.76;60.87;92795.97;4960632;28;20146;-92
2021/04/25 03:05:52;;;;;;;35.65;16.77;;;;;;;8.36;61.20;92726.41;4900719;29;20608;-91
2021/04/25 03:13:02;;;;;;;30.45;16.17;;;;;;;8.61;61.43;92765.47;5031144;28;20109;-91
2021/04/25 03:16:09;;;;;;;33.67;16.17;;;;;;;8.47;61.64;92748.84;5013271;28;20048;-91
2021/04/25 03:27:05;;;;;;;;;;;;;;;;;;;;;
2021/04/25 03:30:25;;;;;;;28.20;15.27;;;;;;;8.18;62.05;92712.13;4980061;28;20053;-92
2021/04/25 03:37:09;;;;;;;;;;;;;;;;;;;;;
2021/04/25 03:40:57;;;;;;;;;;;;;;;;;;;;;
2021/04/25 03:44:11;;;;;;;;;;;;;;;;;;;;;
2021/04/25 03:47:17;;;;;;;;;;;;;;;;;;;;;
2021/04/25 03:50:35;;;;;;;23.98;12.77;;;;;;;8.31;63.73;92724.59;5039226;28;20115;-91
2021/04/25 03:54:37;;;;;;;;;;;;;;;;;;;;;
2021/04/25 03:57:25;;;;;;;;;;;;;;;;;;;;;
2021/04/25 04:00:30;;;;;;;22.27;13.20;;;;;;;8.38;64.39;92756.41;5060241;28;20533;-92
2021/04/25 04:04:19;;;;;;;;;;;;;;;;;;;;;
2021/04/25 04:10:55;;;;;;;;;;;;;;;;;;;;;
2021/04/25 04:14:31;;;;;;;;;;;;;;;;;;;;;
2021/04/25 04:21:54;;;;;;;;;;;;;;;;;;;;;
2021/04/25 04:24:51;;;;;;;25.40;16.00;;;;;;;7.89;64.66;92697.06;5001908;28;20045;-91
2021/04/25 04:27:41;;;;;;;;;;;;;;;;;;;;;
2021/04/25 04:31:01;;;;;;;27.13;16.10;;;;;;;7.82;64.85;92676.47;5006863;28;20045;-91
2021/04/25 04:43:54;;;;;;;;;;;;;;;;;;;;;
2021/04/25 04:46:58;;;;;;;27.13;16.10;;;;;;;8.39;64.06;92734.47;5049853;28;20124;-91
2021/04/25 04:49:53;;;;;;;26.10;16.17;;;;;;;8.20;64.14;92692.53;5008945;28;20049;-91
2021/04/25 04:52:52;;;;;;;29.10;15.60;;;;;;;8.32;64.09;92689.63;5028148;28;20055;-91
2021/04/25 05:00:18;;;;;;;23.60;14.07;;;;;;;8.50;63.67;92685.69;5017750;28;20075;-90
2021/04/25 05:03:29;;;;;;;25.60;15.02;;;;;;;8.63;62.93;92692.16;5052349;28;20041;-90
2021/04/25 05:09:36;;;;;;;23.65;14.20;;;;;;;8.67;62.59;92667.06;5051200;28;19966;-89
2021/04/25 05:12:29;;;;;;;27.02;14.88;;;;;;;8.79;62.56;92672.75;5034863;28;20493;-88
2021/04/25 05:15:45;;;;;;;25.77;15.35;;;;;;;9.22;62.10;92720.00;5012598;28;20061;-89
2021/04/25 05:18:44;;;;;;;;;;;;;;;;;;;;;
2021/04/25 05:21:47;;;;;;;24.83;14.93;;;;;;;9.55;61.32;92725.53;5030287;28;20048;-89
2021/04/25 05:24:49;;;;;;;22.48;13.07;;;;;;;9.35;61.25;92684.66;5014180;28;20042;-88
2021/04/25 05:27:47;;;;;;;;;;;;;;;;;;;;;
2021/04/25 05:31:00;;;;;;;24.55;13.27;;;;;;;9.91;60.36;92699.09;4970402;28;20050;-89
2021/04/25 05:33:56;;;;;;;22.27;14.05;;;;;;;9.98;60.10;92670.78;4985287;28;20142;-90
2021/04/25 05:37:14;;;;;;;25.35;14.18;;;;;;;10.32;58.98;92675.16;4998727;28;20061;-89
2021/04/25 05:44:07;;;;;;;19.73;13.23;;;;;;;10.90;58.23;92690.66;5010673;28;20181;-89
2021/04/25 05:47:33;;;;;;;21.98;12.80;;;;;;;11.43;57.68;92728.94;5022063;28;20099;-89
2021/04/25 05:54:51;;;;;;;23.73;14.05;;;;;;;12.02;55.83;92703.13;5031112;28;20069;-90
2021/04/25 05:57:54;;;;;;;21.92;12.27;;;;;;;11.92;56.07;92719.81;4941137;28;20051;-89
2021/04/25 06:01:15;;;;;;;20.10;12.45;;;;;;;12.23;55.79;92717.44;4898175;28;20070;-88
2021/04/25 06:11:32;;;;;;;20.70;11.27;;;;;;;12.54;53.37;92702.97;5055912;28;20048;-90
2021/04/25 06:18:26;;;;;;;18.10;11.73;;;;;;;16.40;42.84;92667.69;5030390;28;20495;-89
2021/04/25 06:21:21;;;;;;;17.15;11.10;;;;;;;18.09;39.49;92710.94;5021938;28;20056;-89
2021/04/25 06:24:32;;;;;;;14.80;10.82;;;;;;;18.09;38.47;92669.31;5040610;28;20052;-89
2021/04/25 06:27:49;;;;;;;16.27;11.30;;;;;;;20.30;34.89;92716.00;5045725;28;20053;-90
2021/04/25 06:34:15;;;;;;;16.25;11.05;;;;;;;21.74;31.24;92711.34;5033120;28;20200;-91
2021/04/25 06:37:28;;;;;;;18.33;12.13;;;;;;;19.49;34.36;92673.59;5030339;28;20052;-90
2021/04/25 06:40:21;;;;;;;15.93;10.95;;;;;;;21.31;31.82;92708.53;5015077;28;20063;-89
2021/04/25 06:43:29;;;;;;;19.73;11.20;;;;;;;20.49;32.30;92674.69;5006799;28;20169;-89
2021/04/25 06:46:48;;;;;;;;;;;;;;;;;;;;;
2021/04/25 06:50:11;;;;;;;;;;;;;;;;;;;;;
2021/04/25 06:53:21;;;;;;;18.63;11.90;;;;;;;20.03;32.29;92684.94;4987517;28;20056;-90
2021/04/25 06:57:14;;;;;;;17.25;11.13;;;;;;;21.19;32.01;92668.72;5041077;28;20674;-89
2021/04/25 07:00:13;;;;;;;23.25;12.85;;;;;;;19.72;33.43;92681.88;5038947;28;20049;-89
2021/04/25 07:03:27;;;;;;;18.33;11.47;;;;;;;18.70;36.73;92681.09;5056158;28;20378;-90
2021/04/25 07:06:27;;;;;;;20.23;11.13;;;;;;;16.98;41.70;92704.28;5049484;28;20041;-89
2021/04/25 07:09:46;;;;;;;;;;;;;;;;;;;;;
2021/04/25 07:16:38;;;;;;;22.50;13.52;;;;;;;15.41;43.68;92670.34;5032384;28;20518;-90
2021/04/25 07:22:39;;;;;;;;;;;;;;;;;;;;;
2021/04/25 07:25:56;;;;;;;;;;;;;;;;;;;;;
2021/04/25 07:29:30;;;;;;;18.70;12.02;;;;;;;14.49;48.60;92662.44;5034699;28;20045;-90
2021/04/25 07:35:47;;;;;;;20.30;12.55;;;;;;;14.75;48.41;92694.94;4972540;28;20054;-89
2021/04/25 07:42:10;;;;;;;17.15;11.23;;;;;;;15.04;48.17;92688.34;4983117;28;20133;-90
2021/04/25 07:49:30;;;;;;;;;;;;;;;;;;;;;
2021/04/25 07:53:00;;;;;;;19.90;11.30;;;;;;;15.57;46.06;92678.56;5006487;28;20042;-91
2021/04/25 07:55:56;;;;;;;17.08;11.18;;;;;;;15.50;45.74;92644.75;5022212;28;20044;-89
2021/04/25 08:02:22;;;;;;;;;;;;;;;;;;;;;
2021/04/25 08:05:06;;;;;;;16.95;10.70;;;;;;;15.48;46.54;92670.66;5004292;28;20068;-90
2021/04/25 08:08:15;;;;;;;15.80;11.60;;;;;;;15.35;46.11;92671.59;4994854;28;20074;-90
2021/04/25 08:11:46;;;;;;;17.08;10.75;;;;;;;14.87;47.19;92640.88;4970054;28;20043;-91
2021/04/25 08:18:40;;;;;;;16.27;11.02;;;;;;;14.86;47.86;92628.75;4929174;28;20054;-90
2021/04/25 08:22:00;;;;;;;16.00;11.00;;;;;;;15.36;48.93;92646.78;4920024;28;20067;-90
2021/04/25 08:25:32;;;;;;;;;;;;;;;;;;;;;
2021/04/25 08:32:09;;;;;;;16.80;11.20;;;;;;;15.52;47.29;92671.59;4950263;28;20152;-93
2021/04/25 08:35:38;;;;;;;17.92;10.82;;;;;;;15.16;46.89;92645.53;4943648;28;20417;-89
2021/04/25 08:38:45;;;;;;;;;;;;;;;;;;;;;
2021/04/25 08:49:09;;;;;;;;;;;;;;;;;;;;;
2021/04/25 08:53:01;;;;;;;;;;;;;;;;;;;;;
2021/04/25 09:39:22;;;;;;;13.85;9.27;;;;;;;18.39;38.66;92690.34;4828574;29;20136;-91
2021/04/25 10:17:54;;;;;;;;;;;;;;;;;;;;;
2021/04/25 10:40:28;;;;;;;23.10;12.45;;;;;;;18.10;39.21;92633.00;4850377;29;20054;-93
2021/04/25 10:46:37;;;;;;;19.95;11.88;;;;;;;16.65;39.91;92593.88;5023485;28;20571;-92
2021/04/25 10:49:56;;;;;;;17.65;11.43;;;;;;;17.49;39.76;92599.16;5045240;28;20059;-91
2021/04/25 10:53:07;;;;;;;18.38;10.38;;;;;;;17.63;39.55;92614.75;5027434;28;20041;-93
2021/04/25 10:56:27;;;;;;;16.92;11.13;;;;;;;18.30;38.76;92626.06;5033485;28;20055;-92
2021/04/25 10:59:37;;;;;;;19.10;11.98;;;;;;;18.14;39.14;92630.47;5018365;28;20087;-92
2021/04/25 11:03:15;;;;;;;19.63;10.60;;;;;;;18.01;39.45;92619.88;5023110;28;20048;-93
2021/04/25 11:06:06;;;;;;;15.77;10.02;;;;;;;17.62;38.12;92569.00;5046135;28;20609;-93
2021/04/25 11:09:21;;;;;;;13.20;9.32;;;;;;;17.84;37.79;92567.09;5019297;28;20068;-92
2021/04/25 11:29:42;;;;;;;17.13;9.90;;;;;;;18.16;37.20;92546.16;4742405;30;20049;-91
2021/04/25 11:33:05;;;;;;;;;;;;;;;;;;;;;
2021/04/25 11:36:05;;;;;;;;;;;;;;;;;;;;;
2021/04/25 11:39:52;;;;;;;15.05;9.73;;;;;;;17.79;38.30;92554.03;4733604;30;20064;-89
2021/04/25 11:43:08;;;;;;;19.60;10.63;;;;;;;18.33;38.26;92609.53;4779814;29;20046;-91
2021/04/25 12:00:52;;;;;;;18.67;10.90;;;;;;;17.96;38.02;92540.63;4897741;29;20071;-91
2021/04/25 12:04:04;;;;;;;18.63;9.98;;;;;;;18.06;38.31;92579.91;4904655;28;20074;-90
2021/04/25 12:11:16;;;;;;;20.90;9.60;;;;;;;18.09;37.41;92568.66;5010600;28;20101;-91
2021/04/25 12:21:40;;;;;;;;;;;;;;;;;;;;;
2021/04/25 12:25:04;;;;;;;15.70;9.35;;;;;;;18.77;38.00;92575.25;5002174;28;20068;-91
2021/04/25 12:39:49;;;;;;;16.90;9.27;;;;;;;18.92;36.06;92516.22;4951371;28;20057;-91
2021/04/25 12:43:03;;;;;;;13.98;8.93;;;;;;;19.11;36.71;92563.34;4960150;28;20046;-91
2021/04/25 12:51:03;;;;;;;;;;;;;;;;;;;;;
2021/04/25 12:58:05;;;;;;;;;;;;;;;;;;;;;
2021/04/25 13:02:32;;;;;;;17.00;8.90;;;;;;;18.46;35.29;92507.72;5012331;28;20058;-92
2021/04/25 13:05:21;;;;;;;14.60;7.97;;;;;;;19.09;35.25;92554.19;4996930;28;20044;-91
2021/04/25 13:08:54;;;;;;;13.57;8.00;;;;;;;19.30;34.91;92532.78;4940688;28;20421;-91
2021/04/25 13:24:34;;;;;;;13.90;7.80;;;;;;;19.13;33.85;92517.91;4901853;29;20056;-90
2021/04/25 13:27:39;;;;;;;;;;;;;;;;;;;;;
2021/04/25 13:45:48;;;;;;;15.02;8.60;;;;;;;17.88;34.56;92484.00;4950340;28;20035;-92
2021/04/25 13:48:51;;;;;;;11.60;7.47;;;;;;;18.94;35.04;92518.56;5024125;28;20067;-92
2021/04/25 13:52:20;;;;;;;;;;;;;;;;;;;;;
2021/04/25 14:10:19;;;;;;;;;;;;;;;;;;;;;
2021/04/25 14:27:59;;;;;;;;;;;;;;;;;;;;;
2021/04/25 14:43:07;;;;;;;12.70;7.05;;;;;;;18.49;33.56;92438.13;4930270;29;20087;-89
2021/04/25 14:50:37;;;;;;;;;;;;;;;;;;;;;
2021/04/25 15:00:25;;;;;;;12.63;7.13;;;;;;;18.86;32.66;92445.19;4999576;28;20049;-91
2021/04/25 15:03:39;;;;;;;;;;;;;;;;;;;;;
2021/04/25 15:06:45;;;;;;;13.68;7.55;;;;;;;18.14;32.98;92403.41;4999120;28;20096;-90
2021/04/25 15:09:57;;;;;;;13.43;6.95;;;;;;;18.70;33.57;92443.22;4996845;28;20061;-91
2021/04/25 15:13:13;;;;;;;14.10;6.45;;;;;;;19.06;32.99;92438.16;5022975;28;20060;-90
2021/04/25 15:16:05;;;;;;;10.30;5.75;;;;;;;18.54;32.82;92407.19;5015425;28;20045;-92
2021/04/25 15:18:41;;;;;;;14.38;7.00;;;;;;;18.57;32.64;92406.50;4982383;28;20519;-91
2021/04/25 15:22:09;;;;;;;13.77;7.13;;;;;;;18.51;32.91;92398.03;4990463;28;20034;-91
2021/04/25 15:25:07;;;;;;;;;;;;;;;;;;;;;
2021/04/25 15:28:14;;;;;;;;;;;;;;;;;;;;;
2021/04/25 15:30:51;;;;;;;11.73;6.72;;;;;;;18.48;33.25;92377.50;4993917;28;20065;-91
2021/04/25 15:34:07;;;;;;;;;;;;;;;;;;;;;
2021/04/25 15:36:50;;;;;;;13.52;6.65;;;;;;;18.62;32.39;92372.59;5017870;28;20424;-92
2021/04/25 15:40:20;;;;;;;14.32;6.95;;;;;;;18.52;33.01;92379.13;4986686;28;20049;-90
2021/04/25 15:43:44;;;;;;;;;;;;;;;;;;;;;
2021/04/25 15:46:52;;;;;;;9.80;5.95;;;;;;;18.40;32.62;92412.88;5001304;28;20041;-90
2021/04/25 15:49:54;;;;;;;;;;;;;;;;;;;;;
2021/04/25 15:59:38;;;;;;;10.27;6.68;;;;;;;18.16;33.34;92366.78;5004800;28;20061;-91
2021/04/25 16:02:50;;;;;;;;;;;;;;;;;;;;;
2021/04/25 16:09:44;;;;;;;;;;;;;;;;;;;;;
2021/04/25 16:12:24;;;;;;;12.70;7.43;;;;;;;17.89;34.11;92369.03;5006829;28;20046;-90
2021/04/25 16:15:04;;;;;;;;;;;;;;;18.00;34.07;92411.72;4993834;28;20046;-90
2021/04/25 16:17:48;;;;;;;12.38;7.22;;;;;;;17.74;34.05;92359.09;4993947;28;19926;-91
2021/04/25 16:20:59;;;;;;;11.82;7.03;;;;;;;17.91;33.43;92355.47;4986317;28;20062;-91
2021/04/25 16:24:08;;;;;;;14.98;7.32;;;;;;;17.96;33.61;92379.06;5011103;28;20033;-91
2021/04/25 16:27:13;;;;;;;;;;;;;;;;;;;;;
2021/04/25 16:30:11;;;;;;;11.75;6.35;;;;;;;18.03;32.99;92376.63;5007123;28;20056;-92
2021/04/25 16:33:06;;;;;;;11.60;6.60;;;;;;;17.52;33.33;92354.28;4998313;28;20046;-92
2021/04/25 16:39:15;;;;;;;18.35;7.43;;;;;;;17.73;33.13;92346.22;5002521;28;20045;-89
2021/04/25 16:46:26;;;;;;;13.23;6.53;;;;;;;17.74;33.99;92382.16;4950313;28;20129;-90
2021/04/25 16:49:41;;;;;;;16.80;6.28;;;;;;;17.95;33.91;92411.97;4981566;28;20049;-90
2021/04/25 16:52:34;;;;;;;11.50;6.07;;;;;;;17.45;32.89;92346.88;4973738;28;20488;-90
2021/04/25 16:56:03;;;;;;;;;;;;;;;;;;;;;
2021/04/25 16:59:12;;;;;;;17.40;9.13;;;;;;;17.55;33.33;92391.44;4994566;28;20496;-91
2021/04/25 17:02:15;;;;;;;16.75;8.00;;;;;;;17.59;33.10;92378.31;4959870;28;20535;-91
2021/04/25 17:08:48;;;;;;;14.05;7.65;;;;;;;17.21;33.80;92359.03;4987316;28;20105;-90
2021/04/25 17:15:40;;;;;;;12.25;6.85;;;;;;;16.92;34.25;92381.13;5000870;28;20048;-89
2021/04/25 17:18:51;;;;;;;13.80;7.20;;;;;;;16.90;34.08;92358.75;4994166;28;20053;-89
2021/04/25 17:22:09;;;;;;;14.95;7.50;;;;;;;16.77;34.61;92348.13;4995531;28;20512;-89
2021/04/25 17:24:54;;;;;;;27.73;13.18;;;;;;;16.74;35.04;92348.78;5024059;28;20041;-89
2021/04/25 17:31:33;;;;;;;36.20;19.10;;;;;;;16.72;35.11;92379.28;5014213;28;20755;-90
2021/04/25 17:38:18;;;;;;;;;;;;;;;;;;;;;
2021/04/25 17:44:28;;;;;;;14.98;7.25;;;;;;;16.45;35.88;92395.38;5027557;28;20037;-89
2021/04/25 17:48:17;;;;;;;;;;;;;;;;;;;;;
2021/04/25 18:15:52;;;;;;;;;;;;;;;;;;;;;
2021/04/25 18:59:49;;;;;;;14.40;6.55;;;;;;;14.69;42.81;92460.91;4795290;29;20039;-90
2021/04/25 19:19:45;;;;;;;;;;;;;;;;;;;;;
2021/04/25 19:23:30;;;;;;;15.00;6.28;;;;;;;14.36;42.89;92485.84;4706930;30;20544;-91
2021/04/25 19:35:03;;;;;;;;;;;;;;;;;;;;;
2021/04/25 19:39:01;;;;;;;;;;;;;;;;;;;;;
2021/04/25 19:42:20;;;;;;;15.52;7.20;;;;;;;14.01;44.31;92497.41;4925043;28;20129;-90
2021/04/25 19:46:06;;;;;;;;;;;;;;;;;;;;;
2021/04/25 20:00:30;;;;;;;;;;;;;;;;;;;;;
2021/04/25 20:04:05;;;;;;;;;;;;;;;;;;;;;
2021/04/25 20:26:54;;;;;;;;;;;;;;;;;;;;;
2021/04/25 20:30:55;;;;;;;;;;;;;;;;;;;;;
2021/04/25 20:34:41;;;;;;;;;;;;;;;;;;;;;
2021/04/25 20:37:54;;;;;;;15.80;6.70;;;;;;;13.26;45.37;92507.75;5035122;28;20036;-92
2021/04/25 20:41:10;;;;;;;;;;;;;;;;;;;;;
2021/04/25 20:44:47;;;;;;;;;;;;;;;;;;;;;
2021/04/25 20:48:05;;;;;;;;;;;;;;;;;;;;;
2021/04/25 20:51:19;;;;;;;13.68;6.45;;;;;;;13.11;46.11;92486.03;5031693;28;20045;-91
2021/04/25 20:54:16;;;;;;;13.27;6.78;;;;;;;12.96;47.17;92473.25;5039464;28;20390;-90
2021/04/25 20:57:13;;;;;;;13.07;6.72;;;;;;;13.11;47.42;92507.06;5020034;28;20698;-91
2021/04/25 21:03:52;;;;;;;;;;;;;;;;;;;;;
2021/04/25 21:06:59;;;;;;;12.45;6.35;;;;;;;12.53;48.78;92462.50;5031580;28;20047;-92
2021/04/25 21:13:24;;;;;;;11.20;6.22;;;;;;;12.54;48.57;92477.94;5000705;28;20574;-91
2021/04/25 21:16:37;;;;;;;11.18;6.47;;;;;;;12.44;48.61;92468.44;5033058;28;20045;-91
2021/04/25 21:23:09;;;;;;;22.95;10.57;;;;;;;12.65;46.09;92450.38;5054358;28;20044;-91
2021/04/25 21:26:14;;;;;;;;;;;;;;;;;;;;;
2021/04/25 21:29:21;;;;;;;;;;;;;;;;;;;;;
2021/04/25 21:33:15;;;;;;;;;;;;;;;;;;;;;
2021/04/25 21:36:26;;;;;;;;;;;;;;;;;;;;;
2021/04/25 21:39:50;;;;;;;18.60;11.40;;;;;;;12.70;46.13;92494.91;5021915;28;20131;-89
2021/04/25 21:46:51;;;;;;;10.68;5.93;;;;;;;12.34;47.43;92458.19;5020873;28;20136;-90
2021/04/25 21:57:01;;;;;;;;;;;;;;;;;;;;;
2021/04/25 22:00:03;;;;;;;8.38;4.55;;;;;;;12.09;46.74;92451.63;5027956;28;20523;-91
2021/04/25 22:02:53;;;;;;;;;;;;;;;;;;;;;
2021/04/25 22:05:57;;;;;;;8.98;4.20;;;;;;;12.05;47.78;92455.94;5015972;28;20144;-90
2021/04/25 22:15:49;;;;;;;;;;;;;;;;;;;;;
2021/04/25 22:18:57;;;;;;;6.82;4.07;;;;;;;11.84;47.47;92440.59;5036192;28;20073;-91
2021/04/25 22:22:06;;;;;;;6.85;3.90;;;;;;;11.99;47.90;92462.34;5054445;28;20041;-93
2021/04/25 22:25:43;;;;;;;7.10;4.25;;;;;;;11.88;47.31;92452.06;5032587;28;20047;-91
2021/04/25 22:29:04;;;;;;;;;;;;;;;;;;;;;
2021/04/25 22:32:10;;;;;;;7.80;4.15;;;;;;;11.99;46.75;92472.84;5038932;28;20116;-91
2021/04/25 22:35:23;;;;;;;6.72;3.92;;;;;;;11.90;46.95;92459.66;5017097;28;20517;-92
2021/04/25 22:38:35;;;;;;;9.43;4.00;;;;;;;11.76;47.96;92446.53;5032286;28;20063;-91
2021/04/25 22:41:31;;;;;;;;;;;;;;;;;;;;;
2021/04/25 22:44:46;;;;;;;;;;;;;;;;;;;;;
2021/04/25 22:51:47;;;;;;;13.98;4.15;;;;;;;11.81;49.15;92485.75;5069719;28;20044;-91
2021/04/25 22:54:49;;;;;;;;;;;;;;;;;;;;;
2021/04/25 23:02:31;;;;;;;;;;;;;;;;;;;;;
2021/04/25 23:05:59;;;;;;;8.43;4.75;;;;;;;11.66;50.46;92493.91;5048707;28;20053;-92
2021/04/25 23:09:39;;;;;;;;;;;;;;;;;;;;;
2021/04/25 23:12:47;;;;;;;;;;;;;;;;;;;;;
2021/04/25 23:15:41;;;;;;;;;;;;;;;;;;;;;
2021/04/25 23:18:40;;;;;;;10.32;4.88;;;;;;;11.29;51.73;92435.38;5032156;28;20049;-90
2021/04/25 23:21:55;;;;;;;9.88;5.53;;;;;;;11.27;51.79;92427.03;4967609;28;20122;-91
2021/04/25 23:24:49;;;;;;;9.23;5.43;;;;;;;11.18;51.78;92413.84;5025391;28;20041;-91
2021/04/25 23:31:36;;;;;;;;;;;;;;;;;;;;;
2021/04/25 23:44:54;;;;;;;7.47;4.60;;;;;;;11.60;50.97;92453.16;5006723;28;20123;-91
2021/04/25 23:47:26;;;;;;;11.18;4.10;;;;;;;11.26;50.95;92394.06;5046379;28;20037;-90
2021/04/25 23:54:35;;;;;;;14.45;4.47;;;;;;;11.23;50.71;92384.13;5015183;28;20099;-91
